createdAt,value
2018-03-02T00:00:03.055Z,993.05
2018-03-02T00:01:03.056Z,993.02
2018-03-02T00:02:24.043Z,993.06
2018-03-02T00:03:03.008Z,993.04
2018-03-02T00:04:03.023Z,993.03
2018-03-02T00:05:03.011Z,993.00
2018-03-02T00:06:02.993Z,992.98
2018-03-02T00:07:02.982Z,993.04
2018-03-02T00:08:23.961Z,993.01
2018-03-02T00:09:02.964Z,993.01
2018-03-02T00:10:02.976Z,992.98
2018-03-02T00:11:02.937Z,992.99
2018-03-02T00:12:02.918Z,992.98
2018-03-02T00:13:02.920Z,992.95
2018-03-02T00:14:23.897Z,992.90
2018-03-02T00:15:02.884Z,992.94
2018-03-02T00:16:02.876Z,992.91
2018-03-02T00:17:02.883Z,992.88
2018-03-02T00:18:02.843Z,992.87
2018-03-02T00:19:02.832Z,992.81
2018-03-02T00:20:23.825Z,992.81
2018-03-02T00:21:02.817Z,992.81
2018-03-02T00:22:02.805Z,992.84
2018-03-02T00:23:02.822Z,992.80
2018-03-02T00:24:02.780Z,992.82
2018-03-02T00:25:02.766Z,992.79
2018-03-02T00:26:23.760Z,992.80
2018-03-02T00:27:02.738Z,992.82
2018-03-02T00:28:02.722Z,992.79
2018-03-02T00:29:02.710Z,992.86
2018-03-02T00:30:02.701Z,992.83
2018-03-02T00:31:02.693Z,992.84
2018-03-02T00:32:23.695Z,992.86
2018-03-02T00:33:03.604Z,992.85
2018-03-02T00:34:02.653Z,992.83
2018-03-02T00:35:02.642Z,992.82
2018-03-02T00:36:02.632Z,992.80
2018-03-02T00:37:02.624Z,992.81
2018-03-02T00:38:23.611Z,992.79
2018-03-02T00:39:02.581Z,992.75
2018-03-02T00:40:02.611Z,992.68
2018-03-02T00:41:03.805Z,992.68
2018-03-02T00:42:02.562Z,992.65
2018-03-02T00:43:02.553Z,992.70
2018-03-02T00:44:23.530Z,992.66
2018-03-02T00:45:02.513Z,992.66
2018-03-02T00:46:02.531Z,992.64
2018-03-02T00:47:02.507Z,992.65
2018-03-02T00:48:03.686Z,992.61
2018-03-02T00:49:02.469Z,992.62
2018-03-02T00:50:23.468Z,992.61
2018-03-02T00:51:02.465Z,992.59
2018-03-02T00:52:02.464Z,992.57
2018-03-02T00:53:02.430Z,992.55
2018-03-02T00:54:02.406Z,992.49
2018-03-02T00:55:02.400Z,992.52
2018-03-02T00:56:23.395Z,992.50
2018-03-02T00:57:02.402Z,992.41
2018-03-02T00:58:02.369Z,992.42
2018-03-02T00:59:02.357Z,992.44
2018-03-02T01:00:02.330Z,992.36
2018-03-02T01:01:02.326Z,992.37
2018-03-02T01:02:23.315Z,992.31
2018-03-02T01:03:02.306Z,992.25
2018-03-02T01:04:02.301Z,992.30
2018-03-02T01:05:02.266Z,992.32
2018-03-02T01:06:02.271Z,992.32
2018-03-02T01:07:02.251Z,992.29
2018-03-02T01:08:23.251Z,992.24
2018-03-02T01:09:02.232Z,992.30
2018-03-02T01:10:02.214Z,992.23
2018-03-02T01:11:02.203Z,992.24
2018-03-02T01:12:02.214Z,992.23
2018-03-02T01:13:02.177Z,992.19
2018-03-02T01:14:23.170Z,992.15
2018-03-02T01:15:02.157Z,992.21
2018-03-02T01:16:02.132Z,992.16
2018-03-02T01:17:02.137Z,992.24
2018-03-02T01:18:02.109Z,992.19
2018-03-02T01:19:02.106Z,992.25
2018-03-02T01:20:23.097Z,992.23
2018-03-02T01:21:02.081Z,992.21
2018-03-02T01:22:02.075Z,992.20
2018-03-02T01:23:02.054Z,992.23
2018-03-02T01:24:02.036Z,992.26
2018-03-02T01:25:03.265Z,992.27
2018-03-02T01:26:23.016Z,992.27
2018-03-02T01:27:02.003Z,992.25
2018-03-02T01:28:01.987Z,992.24
2018-03-02T01:29:01.985Z,992.21
2018-03-02T01:30:01.974Z,992.22
2018-03-02T01:31:01.958Z,992.19
2018-03-02T01:32:22.958Z,992.15
2018-03-02T01:33:01.947Z,992.14
2018-03-02T01:34:01.929Z,992.12
2018-03-02T01:35:01.916Z,992.13
2018-03-02T01:36:01.893Z,992.11
2018-03-02T01:37:01.882Z,992.09
2018-03-02T01:38:22.866Z,992.07
2018-03-02T01:39:01.876Z,992.05
2018-03-02T01:40:01.860Z,992.01
2018-03-02T01:41:01.837Z,992.02
2018-03-02T01:42:01.838Z,992.00
2018-03-02T01:43:01.806Z,991.98
2018-03-02T01:44:22.811Z,991.96
2018-03-02T01:45:01.793Z,991.94
2018-03-02T01:46:01.762Z,991.91
2018-03-02T01:47:01.763Z,991.88
2018-03-02T01:48:01.745Z,991.84
2018-03-02T01:49:01.739Z,991.89
2018-03-02T01:50:22.728Z,991.87
2018-03-02T01:51:01.708Z,991.90
2018-03-02T01:52:01.699Z,991.93
2018-03-02T01:53:01.680Z,991.94
2018-03-02T01:54:01.674Z,991.97
2018-03-02T01:55:01.657Z,991.93
2018-03-02T01:56:22.659Z,991.90
2018-03-02T01:57:01.639Z,991.98
2018-03-02T01:58:01.617Z,991.90
2018-03-02T01:59:01.619Z,991.90
2018-03-02T02:00:01.701Z,991.89
2018-03-02T02:01:01.583Z,991.96
2018-03-02T02:02:22.588Z,991.95
2018-03-02T02:03:01.561Z,991.93
2018-03-02T02:04:01.553Z,991.95
2018-03-02T02:05:01.543Z,991.93
2018-03-02T02:06:01.522Z,991.95
2018-03-02T02:07:01.508Z,991.93
2018-03-02T02:08:22.501Z,991.90
2018-03-02T02:09:01.487Z,991.93
2018-03-02T02:10:01.487Z,991.97
2018-03-02T02:11:02.248Z,991.94
2018-03-02T02:12:01.448Z,991.97
2018-03-02T02:13:01.446Z,992.00
2018-03-02T02:14:22.444Z,992.01
2018-03-02T02:15:02.392Z,991.95
2018-03-02T02:16:01.402Z,991.95
2018-03-02T02:17:01.411Z,991.91
2018-03-02T02:18:01.375Z,991.88
2018-03-02T02:19:01.376Z,991.87
2018-03-02T02:20:22.375Z,991.83
2018-03-02T02:21:01.375Z,991.85
2018-03-02T02:22:01.318Z,991.83
2018-03-02T02:23:01.342Z,991.85
2018-03-02T02:24:01.340Z,991.82
2018-03-02T02:25:01.299Z,991.84
2018-03-02T02:26:22.276Z,991.82
2018-03-02T02:27:01.272Z,991.79
2018-03-02T02:28:01.300Z,991.80
2018-03-02T02:29:01.306Z,991.80
2018-03-02T02:30:01.280Z,991.86
2018-03-02T02:31:01.290Z,991.83
2018-03-02T02:32:22.227Z,991.76
2018-03-02T02:33:01.263Z,991.79
2018-03-02T02:34:01.264Z,991.79
2018-03-02T02:35:01.216Z,991.71
2018-03-02T02:36:01.175Z,991.72
2018-03-02T02:37:01.190Z,991.70
2018-03-02T02:38:22.153Z,991.72
2018-03-02T02:39:01.172Z,991.74
2018-03-02T02:40:01.204Z,991.66
2018-03-02T02:41:01.103Z,991.63
2018-03-02T02:42:01.166Z,991.58
2018-03-02T02:43:01.102Z,991.60
2018-03-02T02:44:22.076Z,991.59
2018-03-02T02:45:01.093Z,991.62
2018-03-02T02:46:01.040Z,991.62
2018-03-02T02:47:01.045Z,991.62
2018-03-02T02:48:01.047Z,991.63
2018-03-02T02:49:01.694Z,991.59
2018-03-02T02:50:21.995Z,991.58
2018-03-02T02:51:00.987Z,991.54
2018-03-02T02:52:00.977Z,991.52
2018-03-02T02:53:00.955Z,991.57
2018-03-02T02:54:00.955Z,991.62
2018-03-02T02:55:00.944Z,991.60
2018-03-02T02:56:21.919Z,991.63
2018-03-02T02:57:00.917Z,991.64
2018-03-02T02:58:00.895Z,991.66
2018-03-02T02:59:00.885Z,991.66
2018-03-02T03:00:00.865Z,991.65
2018-03-02T03:01:00.856Z,991.65
2018-03-02T03:02:21.841Z,991.66
2018-03-02T03:03:00.831Z,991.68
2018-03-02T03:04:00.819Z,991.67
2018-03-02T03:05:00.806Z,991.70
2018-03-02T03:06:00.793Z,991.61
2018-03-02T03:07:00.772Z,991.64
2018-03-02T03:08:21.762Z,991.60
2018-03-02T03:09:00.752Z,991.60
2018-03-02T03:10:00.725Z,991.54
2018-03-02T03:11:00.727Z,991.52
2018-03-02T03:12:00.716Z,991.43
2018-03-02T03:13:00.689Z,991.39
2018-03-02T03:14:21.683Z,991.38
2018-03-02T03:15:00.682Z,991.40
2018-03-02T03:16:00.659Z,991.42
2018-03-02T03:17:00.655Z,991.44
2018-03-02T03:18:00.622Z,991.38
2018-03-02T03:19:00.621Z,991.45
2018-03-02T03:20:21.619Z,991.45
2018-03-02T03:21:00.595Z,991.45
2018-03-02T03:22:00.584Z,991.51
2018-03-02T03:23:00.564Z,991.53
2018-03-02T03:24:00.553Z,991.50
2018-03-02T03:25:00.540Z,991.53
2018-03-02T03:26:21.531Z,991.48
2018-03-02T03:27:00.520Z,991.50
2018-03-02T03:28:00.512Z,991.48
2018-03-02T03:29:00.486Z,991.52
2018-03-02T03:30:00.489Z,991.54
2018-03-02T03:31:00.460Z,991.56
2018-03-02T03:32:21.456Z,991.56
2018-03-02T03:33:00.446Z,991.53
2018-03-02T03:34:00.433Z,991.53
2018-03-02T03:35:00.414Z,991.53
2018-03-02T03:36:00.407Z,991.46
2018-03-02T03:37:00.392Z,991.45
2018-03-02T03:38:21.387Z,991.40
2018-03-02T03:39:00.382Z,991.41
2018-03-02T03:40:00.358Z,991.44
2018-03-02T03:41:00.318Z,991.46
2018-03-02T03:42:00.327Z,991.42
2018-03-02T03:43:00.306Z,991.40
2018-03-02T03:44:21.300Z,991.36
2018-03-02T03:45:00.299Z,991.32
2018-03-02T03:46:00.283Z,991.28
2018-03-02T03:47:00.246Z,991.23
2018-03-02T03:48:00.261Z,991.16
2018-03-02T03:49:00.234Z,991.18
2018-03-02T03:50:21.216Z,991.13
2018-03-02T03:51:00.223Z,991.17
2018-03-02T03:52:00.191Z,991.20
2018-03-02T03:53:00.183Z,991.15
2018-03-02T03:54:00.167Z,991.21
2018-03-02T03:55:00.158Z,991.23
2018-03-02T03:56:21.149Z,991.23
2018-03-02T03:57:00.934Z,991.19
2018-03-02T03:58:00.109Z,991.18
2018-03-02T03:59:00.112Z,991.20
2018-03-02T04:00:00.128Z,991.21
2018-03-02T04:01:00.084Z,991.28
2018-03-02T04:02:21.073Z,991.33
2018-03-02T04:03:00.054Z,991.35
2018-03-02T04:04:00.038Z,991.31
2018-03-02T04:05:00.044Z,991.28
2018-03-02T04:06:00.009Z,991.31
2018-03-02T04:07:00.003Z,991.29
2018-03-02T04:08:20.986Z,991.26
2018-03-02T04:08:59.970Z,991.23
2018-03-02T04:09:59.967Z,991.22
2018-03-02T04:10:59.940Z,991.22
2018-03-02T04:11:59.941Z,991.19
2018-03-02T04:12:59.934Z,991.24
2018-03-02T04:14:20.912Z,991.20
2018-03-02T04:14:59.903Z,991.15
2018-03-02T04:15:59.893Z,991.13
2018-03-02T04:17:02.143Z,991.12
2018-03-02T04:17:59.848Z,991.10
2018-03-02T04:18:59.840Z,991.07
2018-03-02T04:20:20.832Z,991.03
2018-03-02T04:20:59.825Z,991.03
2018-03-02T04:21:59.806Z,990.99
2018-03-02T04:22:59.799Z,990.97
2018-03-02T04:23:59.783Z,991.00
2018-03-02T04:24:59.764Z,990.99
2018-03-02T04:26:20.765Z,990.95
2018-03-02T04:26:59.748Z,990.93
2018-03-02T04:27:59.734Z,990.93
2018-03-02T04:28:59.708Z,990.91
2018-03-02T04:29:59.704Z,990.88
2018-03-02T04:30:59.696Z,990.82
2018-03-02T04:32:20.684Z,990.84
2018-03-02T04:32:59.668Z,990.81
2018-03-02T04:33:59.645Z,990.80
2018-03-02T04:34:59.648Z,990.77
2018-03-02T04:35:59.636Z,990.68
2018-03-02T04:36:59.611Z,990.70
2018-03-02T04:38:20.606Z,990.69
2018-03-02T04:38:59.599Z,990.74
2018-03-02T04:39:59.579Z,990.70
2018-03-02T04:40:59.547Z,990.74
2018-03-02T04:41:59.553Z,990.68
2018-03-02T04:42:59.534Z,990.65
2018-03-02T04:44:20.536Z,990.63
2018-03-02T04:44:59.508Z,990.61
2018-03-02T04:45:59.498Z,990.54
2018-03-02T04:46:59.471Z,990.55
2018-03-02T04:47:59.477Z,990.52
2018-03-02T04:48:59.460Z,990.49
2018-03-02T04:50:20.449Z,990.45
2018-03-02T04:50:59.462Z,990.45
2018-03-02T04:51:59.452Z,990.43
2018-03-02T04:52:59.420Z,990.43
2018-03-02T04:53:59.390Z,990.43
2018-03-02T04:54:59.396Z,990.38
2018-03-02T04:56:20.369Z,990.37
2018-03-02T04:56:59.367Z,990.40
2018-03-02T04:57:59.356Z,990.38
2018-03-02T04:58:59.321Z,990.43
2018-03-02T04:59:59.306Z,990.43
2018-03-02T05:00:59.313Z,990.42
2018-03-02T05:02:20.272Z,990.38
2018-03-02T05:02:59.276Z,990.36
2018-03-02T05:03:59.272Z,990.32
2018-03-02T05:04:59.243Z,990.31
2018-03-02T05:05:59.237Z,990.31
2018-03-02T05:06:59.228Z,990.23
2018-03-02T05:08:20.840Z,990.22
2018-03-02T05:08:59.205Z,990.20
2018-03-02T05:09:59.201Z,990.17
2018-03-02T05:10:59.172Z,990.15
2018-03-02T05:11:59.140Z,990.11
2018-03-02T05:12:59.151Z,990.13
2018-03-02T05:14:20.137Z,990.09
2018-03-02T05:14:59.945Z,990.08
2018-03-02T05:15:59.112Z,990.05
2018-03-02T05:16:59.097Z,990.09
2018-03-02T05:17:59.070Z,990.03
2018-03-02T05:18:59.065Z,990.06
2018-03-02T05:20:20.108Z,990.05
2018-03-02T05:20:59.052Z,989.99
2018-03-02T05:21:59.026Z,989.97
2018-03-02T05:22:59.018Z,989.99
2018-03-02T05:23:58.995Z,989.99
2018-03-02T05:24:59.809Z,990.06
2018-03-02T05:26:19.983Z,990.08
2018-03-02T05:26:58.959Z,990.10
2018-03-02T05:27:58.946Z,990.08
2018-03-02T05:28:58.938Z,990.12
2018-03-02T05:30:00.241Z,990.09
2018-03-02T05:30:58.919Z,990.07
2018-03-02T05:32:19.899Z,990.10
2018-03-02T05:32:58.888Z,990.11
2018-03-02T05:33:58.869Z,990.04
2018-03-02T05:34:59.722Z,990.08
2018-03-02T05:35:58.857Z,990.02
2018-03-02T05:36:58.821Z,990.02
2018-03-02T05:38:19.816Z,989.99
2018-03-02T05:38:58.804Z,989.99
2018-03-02T05:39:59.657Z,989.97
2018-03-02T05:40:58.783Z,989.96
2018-03-02T05:41:58.774Z,989.99
2018-03-02T05:42:58.760Z,989.98
2018-03-02T05:44:19.750Z,989.94
2018-03-02T05:44:58.735Z,989.95
2018-03-02T05:45:58.718Z,989.91
2018-03-02T05:46:58.707Z,989.89
2018-03-02T05:47:58.690Z,989.87
2018-03-02T05:48:58.678Z,989.89
2018-03-02T05:50:19.661Z,989.87
2018-03-02T05:50:58.648Z,989.85
2018-03-02T05:51:59.444Z,989.87
2018-03-02T05:52:58.633Z,989.90
2018-03-02T05:53:58.609Z,989.93
2018-03-02T05:54:58.588Z,989.93
2018-03-02T05:56:19.590Z,989.92
2018-03-02T05:56:58.580Z,989.86
2018-03-02T05:57:58.564Z,989.88
2018-03-02T05:58:58.545Z,989.86
2018-03-02T05:59:58.535Z,989.85
2018-03-02T06:00:58.525Z,989.87
2018-03-02T06:02:19.513Z,989.84
2018-03-02T06:02:58.502Z,989.85
2018-03-02T06:03:58.471Z,989.80
2018-03-02T06:04:58.460Z,989.84
2018-03-02T06:05:58.456Z,989.82
2018-03-02T06:06:58.438Z,989.78
2018-03-02T06:08:19.445Z,989.75
2018-03-02T06:08:58.428Z,989.71
2018-03-02T06:09:58.406Z,989.71
2018-03-02T06:10:58.399Z,989.72
2018-03-02T06:11:58.398Z,989.75
2018-03-02T06:12:58.378Z,989.76
2018-03-02T06:14:19.342Z,989.80
2018-03-02T06:14:58.342Z,989.82
2018-03-02T06:15:58.332Z,989.80
2018-03-02T06:16:58.334Z,989.78
2018-03-02T06:17:58.283Z,989.83
2018-03-02T06:18:58.302Z,989.82
2018-03-02T06:20:19.258Z,989.79
2018-03-02T06:20:58.283Z,989.80
2018-03-02T06:21:58.257Z,989.78
2018-03-02T06:22:58.233Z,989.77
2018-03-02T06:23:58.235Z,989.74
2018-03-02T06:24:58.225Z,989.73
2018-03-02T06:26:19.191Z,989.70
2018-03-02T06:26:58.191Z,989.73
2018-03-02T06:27:58.216Z,989.71
2018-03-02T06:28:58.152Z,989.78
2018-03-02T06:29:58.159Z,989.73
2018-03-02T06:30:58.141Z,989.69
2018-03-02T06:32:19.114Z,989.73
2018-03-02T06:32:58.119Z,989.73
2018-03-02T06:33:58.111Z,989.67
2018-03-02T06:34:58.137Z,989.70
2018-03-02T06:35:58.090Z,989.68
2018-03-02T06:36:58.112Z,989.67
2018-03-02T06:38:19.860Z,989.69
2018-03-02T06:38:58.082Z,989.72
2018-03-02T06:39:58.071Z,989.75
2018-03-02T06:40:58.041Z,989.72
2018-03-02T06:41:57.997Z,989.76
2018-03-02T06:42:58.032Z,989.77
2018-03-02T06:44:20.168Z,989.79
2018-03-02T06:44:58.007Z,989.78
2018-03-02T06:45:57.975Z,989.72
2018-03-02T06:46:57.961Z,989.74
2018-03-02T06:47:57.954Z,989.74
2018-03-02T06:48:57.927Z,989.70
2018-03-02T06:50:18.882Z,989.68
2018-03-02T06:50:57.890Z,989.65
2018-03-02T06:51:57.889Z,989.58
2018-03-02T06:52:57.863Z,989.56
2018-03-02T06:53:57.849Z,989.57
2018-03-02T06:54:57.810Z,989.61
2018-03-02T06:56:18.795Z,989.58
2018-03-02T06:56:57.809Z,989.57
2018-03-02T06:57:58.695Z,989.61
2018-03-02T06:58:57.768Z,989.66
2018-03-02T06:59:57.773Z,989.65
2018-03-02T07:00:57.750Z,989.69
2018-03-02T07:02:19.874Z,989.70
2018-03-02T07:02:57.706Z,989.65
2018-03-02T07:03:57.729Z,989.66
2018-03-02T07:04:57.678Z,989.64
2018-03-02T07:05:57.685Z,989.63
2018-03-02T07:06:57.645Z,989.60
2018-03-02T07:08:18.660Z,989.69
2018-03-02T07:08:57.627Z,989.60
2018-03-02T07:09:57.631Z,989.68
2018-03-02T07:10:57.611Z,989.61
2018-03-02T07:11:57.588Z,989.66
2018-03-02T07:12:59.697Z,989.60
2018-03-02T07:14:19.263Z,989.59
2018-03-02T07:14:57.574Z,989.63
2018-03-02T07:15:57.534Z,989.55
2018-03-02T07:16:58.674Z,989.56
2018-03-02T07:17:57.518Z,989.58
2018-03-02T07:18:57.509Z,989.52
2018-03-02T07:20:18.511Z,989.50
2018-03-02T07:20:57.516Z,989.50
2018-03-02T07:21:57.455Z,989.48
2018-03-02T07:22:57.457Z,989.50
2018-03-02T07:23:57.524Z,989.51
2018-03-02T07:24:57.439Z,989.54
2018-03-02T07:26:18.428Z,989.52
2018-03-02T07:26:57.420Z,989.53
2018-03-02T07:27:57.380Z,989.53
2018-03-02T07:28:57.361Z,989.54
2018-03-02T07:29:57.351Z,989.57
2018-03-02T07:30:57.344Z,989.59
2018-03-02T07:32:18.353Z,989.60
2018-03-02T07:32:57.330Z,989.59
2018-03-02T07:33:57.292Z,989.57
2018-03-02T07:34:57.292Z,989.57
2018-03-02T07:35:57.256Z,989.60
2018-03-02T07:36:57.270Z,989.59
2018-03-02T07:38:18.274Z,989.59
2018-03-02T07:38:57.230Z,989.57
2018-03-02T07:39:57.234Z,989.56
2018-03-02T07:40:57.208Z,989.53
2018-03-02T07:41:57.202Z,989.50
2018-03-02T07:42:57.177Z,989.46
2018-03-02T07:44:18.245Z,989.58
2018-03-02T07:44:57.160Z,989.59
2018-03-02T07:45:57.117Z,989.58
2018-03-02T07:46:57.133Z,989.61
2018-03-02T07:47:57.121Z,989.67
2018-03-02T07:48:57.117Z,989.62
2018-03-02T07:50:18.142Z,989.65
2018-03-02T07:50:57.211Z,989.62
2018-03-02T07:51:57.068Z,989.58
2018-03-02T07:52:57.057Z,989.60
2018-03-02T07:53:57.038Z,989.60
2018-03-02T07:54:57.032Z,989.60
2018-03-02T07:56:18.075Z,989.58
2018-03-02T07:56:57.840Z,989.62
2018-03-02T07:57:56.994Z,989.63
2018-03-02T07:58:56.974Z,989.58
2018-03-02T07:59:56.958Z,989.58
2018-03-02T08:00:56.970Z,989.62
2018-03-02T08:02:17.961Z,989.55
2018-03-02T08:02:56.913Z,989.54
2018-03-02T08:03:57.682Z,989.55
2018-03-02T08:04:56.898Z,989.49
2018-03-02T08:05:56.892Z,989.47
2018-03-02T08:06:56.879Z,989.45
2018-03-02T08:08:17.884Z,989.47
2018-03-02T08:08:56.852Z,989.46
2018-03-02T08:09:57.381Z,989.52
2018-03-02T08:10:56.819Z,989.48
2018-03-02T08:11:56.807Z,989.46
2018-03-02T08:12:56.804Z,989.50
2018-03-02T08:14:18.770Z,989.48
2018-03-02T08:14:56.749Z,989.45
2018-03-02T08:15:56.767Z,989.45
2018-03-02T08:16:56.734Z,989.45
2018-03-02T08:17:56.726Z,989.47
2018-03-02T08:18:56.724Z,989.39
2018-03-02T08:20:17.717Z,989.37
2018-03-02T08:20:56.699Z,989.41
2018-03-02T08:21:56.688Z,989.38
2018-03-02T08:22:56.672Z,989.31
2018-03-02T08:23:56.676Z,989.31
2018-03-02T08:24:56.656Z,989.28
2018-03-02T08:26:17.676Z,989.26
2018-03-02T08:26:56.627Z,989.24
2018-03-02T08:27:57.187Z,989.23
2018-03-02T08:28:56.601Z,989.18
2018-03-02T08:29:56.578Z,989.18
2018-03-02T08:30:56.575Z,989.21
2018-03-02T08:32:17.567Z,989.19
2018-03-02T08:32:56.549Z,989.19
2018-03-02T08:33:56.531Z,989.19
2018-03-02T08:34:56.518Z,989.21
2018-03-02T08:35:56.515Z,989.15
2018-03-02T08:36:56.496Z,989.18
2018-03-02T08:38:17.478Z,989.13
2018-03-02T08:38:56.461Z,989.16
2018-03-02T08:39:56.464Z,989.09
2018-03-02T08:40:56.445Z,989.12
2018-03-02T08:41:56.437Z,989.09
2018-03-02T08:42:56.461Z,989.14
2018-03-02T08:44:17.407Z,989.13
2018-03-02T08:44:56.397Z,989.19
2018-03-02T08:45:56.385Z,989.15
2018-03-02T08:46:56.360Z,989.17
2018-03-02T08:47:56.367Z,989.18
2018-03-02T08:48:56.348Z,989.17
2018-03-02T08:50:17.324Z,989.15
2018-03-02T08:50:57.223Z,989.13
2018-03-02T08:51:56.303Z,989.12
2018-03-02T08:52:56.283Z,989.07
2018-03-02T08:53:56.288Z,989.04
2018-03-02T08:54:56.264Z,989.04
2018-03-02T08:56:17.270Z,989.00
2018-03-02T08:56:56.249Z,989.02
2018-03-02T08:57:56.217Z,989.00
2018-03-02T08:58:56.222Z,988.95
2018-03-02T08:59:56.213Z,988.98
2018-03-02T09:00:56.203Z,988.91
2018-03-02T09:02:17.172Z,988.93
2018-03-02T09:02:56.163Z,988.93
2018-03-02T09:03:56.157Z,988.94
2018-03-02T09:04:56.932Z,988.92
2018-03-02T09:05:56.130Z,988.93
2018-03-02T09:06:56.127Z,989.03
2018-03-02T09:08:17.099Z,989.00
2018-03-02T09:08:56.092Z,988.96
2018-03-02T09:09:56.090Z,988.94
2018-03-02T09:10:56.069Z,988.94
2018-03-02T09:11:56.042Z,988.97
2018-03-02T09:12:56.032Z,988.91
2018-03-02T09:14:17.021Z,988.89
2018-03-02T09:14:56.017Z,988.90
2018-03-02T09:15:56.020Z,988.90
2018-03-02T09:16:56.000Z,988.88
2018-03-02T09:17:55.977Z,988.92
2018-03-02T09:18:55.958Z,988.95
2018-03-02T09:20:16.962Z,988.92
2018-03-02T09:20:55.938Z,988.88
2018-03-02T09:21:55.925Z,988.86
2018-03-02T09:22:55.918Z,988.85
2018-03-02T09:23:57.912Z,988.84
2018-03-02T09:24:55.907Z,988.90
2018-03-02T09:26:16.943Z,988.86
2018-03-02T09:26:55.869Z,988.91
2018-03-02T09:27:55.855Z,988.89
2018-03-02T09:28:55.842Z,988.98
2018-03-02T09:29:56.364Z,988.87
2018-03-02T09:30:55.813Z,988.95
2018-03-02T09:32:16.804Z,988.97
2018-03-02T09:32:55.796Z,988.95
2018-03-02T09:33:55.774Z,988.94
2018-03-02T09:34:55.764Z,988.92
2018-03-02T09:35:55.752Z,988.95
2018-03-02T09:36:55.738Z,988.98
2018-03-02T09:38:16.722Z,988.97
2018-03-02T09:38:55.723Z,988.99
2018-03-02T09:39:55.696Z,989.02
2018-03-02T09:40:55.691Z,989.06
2018-03-02T09:41:55.676Z,989.02
2018-03-02T09:42:55.663Z,989.03
2018-03-02T09:44:16.666Z,989.01
2018-03-02T09:44:55.649Z,989.02
2018-03-02T09:45:55.640Z,989.03
2018-03-02T09:46:55.611Z,989.02
2018-03-02T09:47:55.605Z,989.01
2018-03-02T09:48:55.622Z,989.04
2018-03-02T09:50:16.582Z,989.04
2018-03-02T09:50:55.569Z,989.03
2018-03-02T09:51:55.550Z,989.06
2018-03-02T09:52:55.549Z,989.07
2018-03-02T09:53:55.530Z,989.05
2018-03-02T09:54:55.514Z,988.95
2018-03-02T09:56:16.509Z,988.89
2018-03-02T09:56:55.493Z,988.97
2018-03-02T09:57:55.473Z,988.93
2018-03-02T09:58:55.459Z,988.92
2018-03-02T09:59:55.455Z,988.90
2018-03-02T10:00:55.442Z,988.92
2018-03-02T10:02:16.445Z,988.91
2018-03-02T10:02:55.429Z,988.92
2018-03-02T10:03:55.413Z,988.85
2018-03-02T10:04:55.402Z,988.85
2018-03-02T10:05:55.385Z,988.87
2018-03-02T10:06:55.382Z,988.87
2018-03-02T10:08:16.343Z,988.91
2018-03-02T10:08:55.348Z,988.94
2018-03-02T10:09:55.342Z,988.95
2018-03-02T10:10:55.322Z,988.97
2018-03-02T10:11:55.320Z,988.97
2018-03-02T10:12:55.305Z,988.94
2018-03-02T10:14:16.290Z,988.93
2018-03-02T10:14:55.283Z,988.92
2018-03-02T10:15:55.260Z,988.90
2018-03-02T10:16:55.262Z,988.95
2018-03-02T10:17:55.234Z,988.90
2018-03-02T10:18:55.232Z,988.90
2018-03-02T10:20:16.218Z,988.90
2018-03-02T10:20:55.210Z,988.89
2018-03-02T10:21:55.206Z,988.94
2018-03-02T10:22:55.182Z,988.95
2018-03-02T10:23:55.176Z,988.99
2018-03-02T10:24:56.068Z,988.96
2018-03-02T10:26:16.148Z,988.97
2018-03-02T10:26:55.113Z,988.94
2018-03-02T10:27:55.135Z,988.88
2018-03-02T10:28:55.120Z,988.92
2018-03-02T10:29:55.110Z,989.00
2018-03-02T10:30:55.088Z,988.98
2018-03-02T10:32:16.109Z,988.94
2018-03-02T10:32:55.049Z,988.98
2018-03-02T10:33:55.056Z,988.97
2018-03-02T10:34:55.045Z,988.94
2018-03-02T10:35:55.031Z,988.93
2018-03-02T10:36:55.022Z,988.94
2018-03-02T10:38:16.002Z,988.91
2018-03-02T10:38:54.992Z,988.89
2018-03-02T10:39:54.971Z,988.91
2018-03-02T10:40:54.965Z,988.91
2018-03-02T10:41:55.761Z,988.87
2018-03-02T10:42:54.942Z,988.93
2018-03-02T10:44:15.936Z,988.91
2018-03-02T10:44:54.924Z,988.97
2018-03-02T10:45:54.897Z,989.02
2018-03-02T10:46:54.888Z,989.06
2018-03-02T10:47:54.896Z,989.03
2018-03-02T10:48:54.879Z,989.07
2018-03-02T10:50:15.858Z,989.10
2018-03-02T10:50:55.766Z,989.12
2018-03-02T10:51:54.838Z,989.10
2018-03-02T10:52:54.824Z,989.08
2018-03-02T10:53:54.820Z,989.06
2018-03-02T10:54:54.824Z,989.06
2018-03-02T10:56:15.805Z,989.11
2018-03-02T10:56:54.775Z,989.08
2018-03-02T10:57:54.774Z,989.09
2018-03-02T10:58:54.758Z,989.06
2018-03-02T10:59:54.740Z,989.05
2018-03-02T11:00:54.729Z,989.04
2018-03-02T11:02:15.757Z,989.10
2018-03-02T11:02:54.706Z,989.06
2018-03-02T11:03:54.709Z,989.06
2018-03-02T11:04:54.677Z,989.01
2018-03-02T11:05:54.667Z,989.05
2018-03-02T11:06:54.663Z,989.09
2018-03-02T11:08:15.661Z,989.06
2018-03-02T11:08:54.659Z,989.04
2018-03-02T11:09:55.582Z,989.03
2018-03-02T11:10:54.617Z,989.06
2018-03-02T11:11:54.606Z,989.01
2018-03-02T11:12:54.585Z,989.02
2018-03-02T11:14:15.579Z,988.99
2018-03-02T11:14:54.573Z,989.01
2018-03-02T11:15:54.561Z,989.01
2018-03-02T11:16:54.547Z,988.99
2018-03-02T11:17:54.529Z,989.00
2018-03-02T11:18:54.527Z,988.99
2018-03-02T11:20:15.509Z,988.92
2018-03-02T11:20:54.493Z,988.97
2018-03-02T11:21:54.490Z,988.99
2018-03-02T11:22:54.478Z,988.92
2018-03-02T11:23:54.467Z,988.93
2018-03-02T11:24:54.456Z,988.87
2018-03-02T11:26:15.439Z,988.88
2018-03-02T11:26:54.409Z,988.89
2018-03-02T11:27:54.424Z,988.86
2018-03-02T11:28:54.402Z,988.91
2018-03-02T11:29:54.391Z,988.88
2018-03-02T11:30:54.403Z,988.87
2018-03-02T11:32:15.378Z,988.87
2018-03-02T11:32:54.378Z,988.86
2018-03-02T11:33:54.358Z,988.88
2018-03-02T11:34:54.325Z,988.88
2018-03-02T11:35:54.332Z,988.83
2018-03-02T11:36:54.315Z,988.84
2018-03-02T11:38:15.299Z,988.82
2018-03-02T11:38:54.285Z,988.81
2018-03-02T11:39:54.288Z,988.79
2018-03-02T11:40:54.280Z,988.81
2018-03-02T11:41:54.259Z,988.76
2018-03-02T11:42:54.277Z,988.83
2018-03-02T11:44:15.252Z,988.76
2018-03-02T11:44:54.235Z,988.74
2018-03-02T11:45:54.232Z,988.68
2018-03-02T11:46:54.203Z,988.68
2018-03-02T11:47:54.196Z,988.76
2018-03-02T11:48:54.799Z,988.74
2018-03-02T11:50:15.168Z,988.67
2018-03-02T11:50:54.155Z,988.74
2018-03-02T11:51:54.156Z,988.71
2018-03-02T11:52:54.133Z,988.69
2018-03-02T11:53:54.111Z,988.69
2018-03-02T11:54:54.135Z,988.72
2018-03-02T11:56:15.128Z,988.71
2018-03-02T11:56:54.087Z,988.79
2018-03-02T11:57:54.080Z,988.78
2018-03-02T11:58:54.100Z,988.76
2018-03-02T11:59:54.060Z,988.75
2018-03-02T12:00:54.052Z,988.76
2018-03-02T12:02:15.032Z,988.77
2018-03-02T12:02:54.031Z,988.73
2018-03-02T12:03:54.026Z,988.77
2018-03-02T12:04:54.027Z,988.73
2018-03-02T12:05:54.003Z,988.81
2018-03-02T12:06:54.007Z,988.76
2018-03-02T12:08:14.988Z,988.84
2018-03-02T12:08:53.949Z,988.84
2018-03-02T12:09:53.928Z,988.83
2018-03-02T12:10:53.942Z,988.83
2018-03-02T12:11:53.973Z,988.84
2018-03-02T12:12:53.935Z,988.82
2018-03-02T12:14:14.902Z,988.75
2018-03-02T12:14:53.895Z,988.74
2018-03-02T12:15:53.919Z,988.71
2018-03-02T12:16:55.400Z,988.69
2018-03-02T12:17:53.861Z,988.67
2018-03-02T12:18:53.865Z,988.65
2018-03-02T12:20:14.845Z,988.67
2018-03-02T12:20:53.863Z,988.66
2018-03-02T12:21:54.411Z,988.69
2018-03-02T12:22:53.804Z,988.70
2018-03-02T12:23:53.836Z,988.73
2018-03-02T12:24:53.859Z,988.73
2018-03-02T12:26:14.809Z,988.78
2018-03-02T12:26:53.799Z,988.78
2018-03-02T12:27:53.792Z,988.85